createdAt,value
2017-08-24T00:01:45.148Z,22.50
2017-08-24T00:04:12.747Z,22.60
2017-08-24T00:06:40.530Z,22.50
2017-08-24T00:09:08.087Z,22.50
2017-08-24T00:11:35.590Z,22.50
2017-08-24T00:14:03.479Z,22.50
2017-08-24T00:16:31.083Z,22.50
2017-08-24T00:18:58.697Z,22.50
2017-08-24T00:21:27.009Z,22.30
2017-08-24T00:23:54.774Z,22.30
2017-08-24T00:26:23.107Z,22.20
2017-08-24T00:28:50.684Z,22.00
2017-08-24T00:31:18.595Z,21.90
2017-08-24T00:33:46.094Z,21.70
2017-08-24T00:36:13.653Z,21.70
2017-08-24T00:38:41.207Z,21.60
2017-08-24T00:41:08.717Z,21.50
2017-08-24T00:43:36.279Z,21.50
2017-08-24T00:46:03.759Z,21.40
2017-08-24T00:48:31.544Z,21.40
2017-08-24T00:50:59.007Z,21.40
2017-08-24T00:53:27.330Z,21.50
2017-08-24T00:55:54.817Z,21.50
2017-08-24T00:58:22.418Z,21.50
2017-08-24T01:00:50.172Z,21.50
2017-08-24T01:03:17.787Z,21.40
2017-08-24T01:05:45.267Z,21.40
2017-08-24T01:08:12.749Z,21.40
2017-08-24T01:10:40.205Z,21.40
2017-08-24T01:13:07.733Z,21.30
2017-08-24T01:15:35.198Z,21.30
2017-08-24T01:18:02.855Z,21.30
2017-08-24T01:20:30.432Z,21.30
2017-08-24T01:22:57.918Z,21.30
2017-08-24T01:25:26.243Z,21.20
2017-08-24T01:27:53.840Z,21.20
2017-08-24T01:30:22.478Z,21.30
2017-08-24T01:32:50.108Z,21.30
2017-08-24T01:35:17.722Z,21.30
2017-08-24T01:37:46.054Z,21.30
2017-08-24T01:40:13.611Z,21.30
2017-08-24T01:42:41.143Z,21.30
2017-08-24T01:45:09.627Z,21.20
2017-08-24T01:47:37.412Z,21.20
2017-08-24T01:50:05.276Z,21.30
2017-08-24T01:52:33.526Z,21.20
2017-08-24T01:55:01.140Z,21.20
2017-08-24T01:57:28.743Z,21.20
2017-08-24T01:59:56.411Z,21.20
2017-08-24T02:02:24.003Z,21.20
2017-08-24T02:04:51.514Z,21.20
2017-08-24T02:07:19.045Z,21.20
2017-08-24T02:09:46.568Z,21.20
2017-08-24T02:12:14.981Z,21.20
2017-08-24T02:14:42.574Z,21.20
2017-08-24T02:17:10.926Z,21.30
2017-08-24T02:19:38.453Z,21.30
2017-08-24T02:22:05.964Z,21.30
2017-08-24T02:24:33.559Z,21.30
2017-08-24T02:27:01.120Z,21.30
2017-08-24T02:29:28.630Z,21.30
2017-08-24T02:31:56.176Z,21.30
2017-08-24T02:34:23.713Z,21.20
2017-08-24T02:36:51.298Z,21.20
2017-08-24T02:39:19.354Z,21.20
2017-08-24T02:41:46.862Z,21.20
2017-08-24T02:44:14.611Z,21.20
2017-08-24T02:46:42.402Z,21.20
2017-08-24T02:49:09.951Z,21.10
2017-08-24T02:51:37.660Z,21.10
2017-08-24T02:54:05.167Z,21.00
2017-08-24T02:56:32.886Z,21.00
2017-08-24T02:59:01.217Z,20.80
2017-08-24T03:01:28.846Z,20.80
2017-08-24T03:03:56.451Z,20.80
2017-08-24T03:06:24.010Z,20.70
2017-08-24T03:08:51.574Z,20.70
2017-08-24T03:11:19.223Z,20.70
2017-08-24T03:13:46.675Z,20.70
2017-08-24T03:16:15.203Z,20.60
2017-08-24T03:18:42.931Z,20.60
2017-08-24T03:21:10.509Z,20.60
2017-08-24T03:23:38.820Z,20.60
2017-08-24T03:26:06.360Z,20.60
2017-08-24T03:28:34.747Z,20.60
2017-08-24T03:31:02.321Z,20.60
2017-08-24T03:33:29.804Z,20.60
2017-08-24T03:35:57.418Z,20.60
2017-08-24T03:38:25.701Z,20.60
2017-08-24T03:40:53.360Z,20.60
2017-08-24T03:43:21.273Z,20.50
2017-08-24T03:45:48.893Z,20.40
2017-08-24T03:48:16.523Z,20.30
2017-08-24T03:50:44.793Z,20.30
2017-08-24T03:53:12.386Z,20.30
2017-08-24T03:55:40.734Z,20.30
2017-08-24T03:58:08.183Z,20.20
2017-08-24T04:00:35.653Z,20.20
2017-08-24T04:03:03.215Z,20.10
2017-08-24T04:05:30.902Z,20.10
2017-08-24T04:07:59.115Z,20.00
2017-08-24T04:10:26.698Z,19.90
2017-08-24T04:12:54.332Z,19.90
2017-08-24T04:15:21.923Z,19.90
2017-08-24T04:17:49.463Z,19.90
2017-08-24T04:20:17.032Z,19.90
2017-08-24T04:22:45.282Z,19.80
2017-08-24T04:25:12.868Z,19.80
2017-08-24T04:27:40.438Z,19.80
2017-08-24T04:30:07.928Z,19.80
2017-08-24T04:32:36.250Z,19.60
2017-08-24T04:35:03.986Z,19.60
2017-08-24T04:37:31.544Z,19.60
2017-08-24T04:39:59.095Z,19.50
2017-08-24T04:42:27.334Z,19.40
2017-08-24T04:44:54.890Z,19.30
2017-08-24T04:47:22.456Z,19.30
2017-08-24T04:49:49.912Z,19.20
2017-08-24T04:52:17.415Z,19.20
2017-08-24T04:54:44.974Z,19.20
2017-08-24T04:57:13.355Z,19.10
2017-08-24T04:59:40.842Z,19.10
2017-08-24T05:02:08.354Z,19.10
2017-08-24T05:04:35.987Z,19.20
2017-08-24T05:07:04.352Z,19.30
2017-08-24T05:09:31.923Z,19.30
2017-08-24T05:11:59.415Z,19.40
2017-08-24T05:14:26.871Z,19.40
2017-08-24T05:16:55.150Z,19.60
2017-08-24T05:19:23.364Z,19.60
2017-08-24T05:21:50.845Z,19.60
2017-08-24T05:24:18.513Z,19.60
2017-08-24T05:26:46.011Z,19.60
2017-08-24T05:29:13.510Z,19.60
2017-08-24T05:31:41.275Z,19.60
2017-08-24T05:34:08.785Z,19.50
2017-08-24T05:36:37.043Z,19.60
2017-08-24T05:39:05.390Z,19.60
2017-08-24T05:41:32.901Z,19.60
2017-08-24T05:44:01.221Z,19.60
2017-08-24T05:46:28.814Z,19.60
2017-08-24T05:48:56.355Z,19.60
2017-08-24T05:51:23.971Z,19.60
2017-08-24T05:53:51.615Z,19.60
2017-08-24T05:56:19.192Z,19.50
2017-08-24T05:58:46.652Z,19.60
2017-08-24T06:01:14.257Z,19.60
2017-08-24T06:03:41.762Z,19.60
2017-08-24T06:06:09.348Z,19.60
2017-08-24T06:08:37.090Z,19.60
2017-08-24T06:11:05.455Z,19.60
2017-08-24T06:13:33.814Z,19.60
2017-08-24T06:16:01.365Z,19.60
2017-08-24T06:18:28.995Z,19.60
2017-08-24T06:20:56.516Z,19.70
2017-08-24T06:23:24.049Z,19.70
2017-08-24T06:25:51.532Z,19.80
2017-08-24T06:28:19.230Z,19.80
2017-08-24T06:30:46.792Z,19.90
2017-08-24T06:33:14.273Z,19.90
2017-08-24T06:35:41.779Z,19.90
2017-08-24T06:38:09.283Z,19.90
2017-08-24T06:40:36.788Z,20.10
2017-08-24T06:43:04.253Z,20.20
2017-08-24T06:45:32.545Z,20.50
2017-08-24T06:48:00.005Z,20.50
2017-08-24T06:50:27.503Z,20.60
2017-08-24T06:52:55.012Z,20.50
2017-08-24T06:55:22.517Z,20.40
2017-08-24T06:57:50.086Z,20.30
2017-08-24T07:00:17.970Z,20.20
2017-08-24T07:02:46.037Z,20.30
2017-08-24T07:05:13.514Z,20.30
2017-08-24T07:07:40.994Z,20.20
2017-08-24T07:10:08.435Z,20.20
2017-08-24T07:12:36.705Z,19.90
2017-08-24T07:15:04.283Z,19.90
2017-08-24T07:17:31.846Z,19.80
2017-08-24T07:20:00.174Z,19.90
2017-08-24T07:22:27.676Z,19.80
2017-08-24T07:24:55.176Z,19.80
2017-08-24T07:27:22.782Z,19.70
2017-08-24T07:29:50.401Z,19.80
2017-08-24T07:32:17.869Z,19.80
2017-08-24T07:34:45.355Z,20.00
2017-08-24T07:37:12.936Z,20.00
2017-08-24T07:39:40.445Z,20.10
2017-08-24T07:42:07.982Z,20.20
2017-08-24T07:44:35.500Z,20.20
2017-08-24T07:47:02.972Z,20.20
2017-08-24T07:49:30.471Z,20.20
2017-08-24T07:51:57.988Z,20.20
2017-08-24T07:54:25.597Z,20.30
2017-08-24T07:56:53.201Z,20.40
2017-08-24T07:59:21.105Z,20.40
2017-08-24T08:01:48.582Z,20.40
2017-08-24T08:04:16.227Z,20.40
2017-08-24T08:06:44.039Z,20.40
2017-08-24T08:09:11.501Z,20.50
2017-08-24T08:11:38.958Z,20.60
2017-08-24T08:14:06.541Z,20.60
2017-08-24T08:16:34.053Z,20.60
2017-08-24T08:19:01.527Z,20.70
2017-08-24T08:21:29.084Z,20.80
2017-08-24T08:23:56.710Z,20.90
2017-08-24T08:26:24.372Z,20.80
2017-08-24T08:28:51.884Z,20.90
2017-08-24T08:31:20.277Z,21.10
2017-08-24T08:33:48.034Z,21.10
2017-08-24T08:36:16.322Z,21.20
2017-08-24T08:38:43.812Z,21.20
2017-08-24T08:41:11.324Z,21.40
2017-08-24T08:43:39.614Z,21.80
2017-08-24T08:46:07.123Z,21.80
2017-08-24T08:48:34.616Z,22.00
2017-08-24T08:51:02.127Z,22.10
2017-08-24T08:53:29.802Z,23.10
2017-08-24T08:55:57.337Z,24.00
2017-08-24T08:58:24.994Z,24.20
2017-08-24T09:00:53.440Z,24.80
2017-08-24T09:03:20.995Z,24.70
2017-08-24T09:05:49.905Z,25.80
2017-08-24T09:08:17.348Z,25.80
2017-08-24T09:10:44.842Z,25.20
2017-08-24T09:13:12.459Z,24.50
2017-08-24T09:15:40.025Z,23.80
2017-08-24T09:18:07.650Z,23.70
2017-08-24T09:20:35.199Z,23.80
2017-08-24T09:23:02.980Z,23.50
2017-08-24T09:25:30.637Z,22.80
2017-08-24T09:27:58.299Z,22.40
2017-08-24T09:30:25.839Z,22.30
2017-08-24T09:32:53.308Z,22.10
2017-08-24T09:35:21.350Z,22.30
2017-08-24T09:37:49.198Z,24.20
2017-08-24T09:40:17.244Z,24.30
2017-08-24T09:42:44.766Z,25.60
2017-08-24T09:45:12.391Z,26.10
2017-08-24T09:47:40.817Z,27.60
2017-08-24T09:50:08.681Z,27.60
2017-08-24T09:52:36.159Z,27.70
2017-08-24T09:55:03.633Z,27.80
2017-08-24T09:57:31.721Z,27.90
2017-08-24T09:59:59.195Z,28.60
2017-08-24T10:02:26.755Z,28.30
2017-08-24T10:04:54.485Z,27.50
2017-08-24T10:07:22.062Z,26.80
2017-08-24T10:09:49.618Z,26.60
2017-08-24T10:12:18.043Z,26.20
2017-08-24T10:14:45.551Z,26.20
2017-08-24T10:17:13.071Z,26.10
2017-08-24T10:19:40.627Z,25.70
2017-08-24T10:22:08.238Z,25.50
2017-08-24T10:24:35.858Z,25.40
2017-08-24T10:27:03.353Z,25.10
2017-08-24T10:29:30.928Z,24.90
2017-08-24T10:31:58.483Z,24.60
2017-08-24T10:34:26.093Z,24.20
2017-08-24T10:36:53.602Z,24.20
2017-08-24T10:39:22.227Z,23.90
2017-08-24T10:41:50.681Z,23.90
2017-08-24T10:44:18.241Z,23.60
2017-08-24T10:46:45.746Z,23.30
2017-08-24T10:49:13.290Z,22.90
2017-08-24T10:51:40.792Z,22.60
2017-08-24T10:54:08.276Z,22.40
2017-08-24T10:56:36.543Z,22.40
2017-08-24T10:59:04.030Z,22.40
2017-08-24T11:01:31.749Z,22.50
2017-08-24T11:03:59.372Z,22.50
2017-08-24T11:06:27.032Z,22.60
2017-08-24T11:08:54.645Z,22.80
2017-08-24T11:11:22.136Z,23.20
2017-08-24T11:13:49.882Z,23.60
2017-08-24T11:16:17.425Z,23.90
2017-08-24T11:18:45.045Z,24.20
2017-08-24T11:21:12.591Z,24.30
2017-08-24T11:23:40.159Z,24.40
2017-08-24T11:26:07.984Z,24.40
2017-08-24T11:28:36.259Z,24.20
2017-08-24T11:31:03.742Z,24.10
2017-08-24T11:33:32.161Z,24.00
2017-08-24T11:35:59.762Z,24.00
2017-08-24T11:38:27.549Z,23.90
2017-08-24T11:40:55.023Z,23.80
2017-08-24T11:43:22.708Z,23.70
2017-08-24T11:45:50.271Z,23.50
2017-08-24T11:48:17.825Z,23.60
2017-08-24T11:50:45.306Z,23.80
2017-08-24T11:53:12.950Z,24.00
2017-08-24T11:55:40.649Z,23.90
2017-08-24T11:58:08.239Z,23.70
2017-08-24T12:00:35.767Z,24.00
2017-08-24T12:03:03.352Z,24.20
2017-08-24T12:05:31.253Z,24.20
2017-08-24T12:07:58.900Z,24.20
2017-08-24T12:10:26.580Z,24.50
2017-08-24T12:12:54.162Z,24.50
2017-08-24T12:15:21.781Z,24.50
2017-08-24T12:17:49.297Z,24.40
2017-08-24T12:20:17.590Z,24.00
2017-08-24T12:22:45.783Z,24.00
2017-08-24T12:25:13.295Z,24.00
2017-08-24T12:27:40.849Z,23.90
2017-08-24T12:30:08.307Z,23.80
2017-08-24T12:32:35.866Z,23.70
2017-08-24T12:35:03.329Z,23.70
2017-08-24T12:37:30.982Z,23.70
2017-08-24T12:39:58.476Z,23.90
2017-08-24T12:42:26.190Z,24.00
2017-08-24T12:44:53.752Z,23.90
2017-08-24T12:47:21.645Z,23.80
2017-08-24T12:49:49.208Z,23.90
2017-08-24T12:52:16.944Z,24.10
2017-08-24T12:54:44.530Z,24.20
2017-08-24T12:57:11.979Z,24.30
2017-08-24T12:59:39.547Z,24.40
2017-08-24T13:02:07.003Z,24.50
2017-08-24T13:04:34.594Z,24.50
2017-08-24T13:07:02.098Z,24.30
2017-08-24T13:09:29.586Z,24.30
2017-08-24T13:11:57.081Z,24.20
2017-08-24T13:14:24.756Z,24.20
2017-08-24T13:16:52.391Z,24.10
2017-08-24T13:19:20.176Z,23.90
2017-08-24T13:21:47.740Z,23.80
2017-08-24T13:24:15.273Z,23.90
2017-08-24T13:26:42.915Z,24.10
2017-08-24T13:29:11.138Z,24.40
2017-08-24T13:31:38.631Z,24.40
2017-08-24T13:34:06.099Z,24.50
2017-08-24T13:36:33.921Z,24.70
2017-08-24T13:39:01.576Z,24.70
2017-08-24T13:41:29.114Z,24.50
2017-08-24T13:43:57.370Z,24.20
2017-08-24T13:46:24.931Z,24.20
2017-08-24T13:48:53.310Z,24.30
2017-08-24T13:51:20.863Z,24.20
2017-08-24T13:53:48.431Z,24.30
2017-08-24T13:56:15.990Z,24.40
2017-08-24T13:58:43.766Z,24.50
2017-08-24T14:01:11.385Z,24.30
2017-08-24T14:03:38.866Z,24.40
2017-08-24T14:06:06.885Z,24.70
2017-08-24T14:08:34.376Z,24.70
2017-08-24T14:11:02.236Z,24.70
2017-08-24T14:13:29.846Z,24.60
2017-08-24T21:49:39.196Z,19.30
